メインページ
METAR-TAF:

METAR-TAF

空港 :

バーレーン, バーレーン

バーレーン国際空港

緯度: 26-16N, 経度: 050-39E, 海抜: 2m

現時点の気象観測

当レポートは22分前の06:00(UTC)に作成
変向風 2kt
気温 20°C
湿度 49%
気圧 1019 hPa
視程10km以上
1,500メートル以下は雲なし、積乱雲なし

METAR: OBBI 140600Z VRB02KT CAVOK 20/09 Q1019 NOSIG

時間: 09:22 (06:22 UTC)

予報

当レポートは1時間22分前の05:00(UTC)に作成
予報は14日の 06時(UTC)から 15日の 12時(UTC)まで有効
変向風 5kt
視程10km以上
1,500メートル以下は雲なし、積乱雲なし
14日の 11時(UTC)から 14日の 13時(UTC)まで徐々に
南/南東の風 12kt

TAF: OBBI 140500Z 1406/1512 VRB05KT CAVOK BECMG 1411/1413 16012KT

4,000以上の空港の気象観測と天気予報(METAR報とTAF報)

利用可能な観測所は地図上に黄色い丸と赤い丸で示す。

丸の上にカーソルを重ねると観測所名を参照できる。

次にクリックすると気象観測と天気予報を参照できる。

マップの切り替え:黒色「×」印の緑ボタンをクリックして拡大、「-」印の緑ボタンをクリックして縮小、緑色の三角印をクリックして隣りの地図に切り替え


METAR-TAF: